Portage, ME (04768)

3:12 PM EDT on September 04, 2015 (GMT -0400)
MesoWest | | Change Station
CLOSE
Current Station
Personal Weather Station
Location: Ashland, ME
Elevation: 748 ft
Nearby Weather Stations

Elev 748 ft 46.60 °N, 68.41 °W | Updated 42 minutes ago

Clear
Clear
69 °F
Feels Like 69 °F
N
5
Wind Variable Wind from North
Gusts 10.0 mph

Today
High -- | Low -- °F
--% Chance of Precip.
Yesterday
High -- | Low -- °F
Precip. -- in
5:57 AM 7:07 PM
Waning Gibbous, 57% visible
Pressure 30.21 in
Visibility 10.0 miles
Clouds Clear
Dew Point 46 °F
Humidity 43%
Rainfall in
Snow Depth Not available.
UV 5 out of 12
Pollen 7.00 out of 12
Air Quality Not available.
Flu Activity Not available.
METAR KPQI 041855Z AUTO 36006KT 10SM CLR 20/07 A3021 RMK AO1
Pressure 30.21 in
Visibility 10.0 miles
Clouds Clear
Dew Point 46 °F
Humidity 43%
Rainfall in
Snow Depth Not available.
UV 5 out of 12
Pollen 7.00 out of 12
Air Quality Not available.
Flu Activity Not available.
METAR KPQI 041855Z AUTO 36006KT 10SM CLR 20/07 A3021 RMK AO1

10-Day Weather Forecast

×

Almanac

Astronomy

Sep. 04, 2015 Rise Set
Actual Time
Civil Twilight
Nautical Twilight
Astronomical Twilight
Moon
Length of Visible Light
Length of Day
Tomorrow will be .
, % of the Moon is Illuminated

Today's Extremes

State Highs State Lows

Community

WunderPhotos

Upload Photos

1,852,271 photos uploaded!

WunderBlogs® & News

Nearby

Air Quality

  Air Quality AQ Index Pollutant
Not available.

Snow Depth

Station Depth Elevation

Earthquake Activity

City Distance Mag. Time & Date
Minimum magnitude displayed is 2.5.

Coastal Water Temperatures

Place Temperature

Stations

Nearby Weather Stations

Station Location Temp. Windchill Dew Point Humidity Wind Precip. Elev Updated Type